Terminal Aerodrome Forecast
Issued by NWS Charleston, SC

Home | Current Version | Previous Version | Text Only | Print | Product List | Glossary On
Versions: 1 2 3 4 5 6 7 8 9 10 11 12 13
279
FTUS42 KCHS 130531
TAFSAV
TAF
KSAV 130531Z 1306/1406 33007KT P6SM SKC
     FM131400 33010G16KT P6SM SKC
     FM132200 02006KT P6SM SKC=

USA.gov is the U.S. government's official web portal to all federal, state and local government web resources and services.